Stations météo

réclame
Mon MeteoGroup
Cairnwell, Grande-Bretagne (3072): Température de l'air & dewpoint: 19.04.2018 09:00:00 - 25.04.2018 09:00:00 (BST)Cairnwell, Grande-Bretagne (3072): Vitesse du vent & gusts: 19.04.2018 09:00:00 - 25.04.2018 09:00:00 (BST)Cairnwell, Grande-Bretagne (3072): Direction du vent: 19.04.2018 09:00:00 - 25.04.2018 09:00:00 (BST)
Date & Time tt [°C] td [°C] ff [km/h] ff [knt] fx [km/h] fx [knt] dd
25.04.2018 09:00:00 0,2 0,2 34 18 50 27 SW
25.04.2018 08:00:00 0,0 0,0 31 17 - - WSW
25.04.2018 07:00:00 -0,1 -0,1 28 15 48 26 WSW
25.04.2018 06:00:00 -0,1 -0,1 31 17 - - W
25.04.2018 05:00:00 0,1 0,0 24 13 - - WSW
25.04.2018 04:00:00 0,3 -0,1 28 15 - - W
25.04.2018 03:00:00 0,2 0,0 24 13 - - WSW
25.04.2018 02:00:00 0,9 -0,9 22 12 - - W
25.04.2018 01:00:00 0,6 0,0 22 12 - - WNW
25.04.2018 00:00:00 0,8 0,2 8 4 - - W
24.04.2018 23:00:00 1,1 0,3 21 11 - - WNW
24.04.2018 22:00:00 0,9 0,9 21 11 - - WNW
24.04.2018 21:00:00 0,9 0,9 35 19 46 25 WNW
24.04.2018 20:00:00 2,7 0,7 28 15 - - W
24.04.2018 19:00:00 3,3 0,3 28 15 - - W
24.04.2018 18:00:00 3,4 -0,7 39 21 55 30 W
24.04.2018 17:00:00 3,8 -0,3 44 24 59 32 WSW
24.04.2018 16:00:00 3,9 -1,0 37 20 59 32 WSW
24.04.2018 15:00:00 3,1 0,7 41 22 78 42 WSW
24.04.2018 14:00:00 3,5 0,1 48 26 70 38 WSW
24.04.2018 13:00:00 3,6 -1,1 44 24 67 36 W
24.04.2018 12:00:00 2,7 -1,5 39 21 68 37 W
24.04.2018 11:00:00 2,0 -1,0 37 20 54 29 W
24.04.2018 10:00:00 1,1 1,1 39 21 89 48 W
24.04.2018 09:00:00 1,2 0,2 48 26 85 46 W
24.04.2018 08:00:00 0,8 -0,1 50 27 85 46 W
24.04.2018 07:00:00 0,7 -0,5 50 27 68 37 W
24.04.2018 06:00:00 0,6 -0,3 55 30 85 46 W
24.04.2018 05:00:00 0,4 0,3 50 27 70 38 W
24.04.2018 04:00:00 1,1 0,2 39 21 87 47 W
24.04.2018 03:00:00 1,2 -0,4 57 31 87 47 W
24.04.2018 02:00:00 1,7 -0,3 67 36 111 60 W
24.04.2018 01:00:00 1,5 0,3 87 47 115 62 W
24.04.2018 00:00:00 2,7 2,7 59 32 81 44 W
23.04.2018 23:00:00 3,7 3,7 52 28 80 43 W
23.04.2018 22:00:00 3,5 3,5 35 19 48 26 SW
23.04.2018 21:00:00 3,2 3,2 42 23 52 28 SSW
23.04.2018 20:00:00 2,7 2,7 42 23 50 27 S
23.04.2018 19:00:00 2,2 2,2 42 23 65 35 SSW
23.04.2018 18:00:00 1,5 1,5 59 32 67 36 SW
23.04.2018 17:00:00 2,5 2,2 37 20 55 30 SW
23.04.2018 16:00:00 3,1 1,1 39 21 89 48 SW
23.04.2018 15:00:00 2,8 0,4 52 28 78 42 WSW
23.04.2018 14:00:00 2,8 1,9 52 28 67 36 WSW
23.04.2018 13:00:00 2,6 1,6 44 24 81 44 WSW
23.04.2018 12:00:00 2,3 2,2 50 27 65 35 WSW
23.04.2018 11:00:00 2,0 2,0 35 19 72 39 WSW
23.04.2018 10:00:00 2,5 1,2 61 33 81 44 W
23.04.2018 09:00:00 2,3 2,3 44 24 65 35 W
23.04.2018 08:00:00 2,5 2,5 41 22 70 38 W
23.04.2018 07:00:00 2,1 2,1 44 24 78 42 W
23.04.2018 06:00:00 2,1 2,1 55 30 89 48 W
23.04.2018 05:00:00 2,4 2,2 55 30 81 44 W
23.04.2018 04:00:00 2,0 2,0 54 29 98 53 W
23.04.2018 03:00:00 2,2 2,2 50 27 80 43 W
23.04.2018 02:00:00 2,1 2,1 39 21 61 33 WSW
23.04.2018 01:00:00 2,0 2,0 50 27 68 37 WSW
23.04.2018 00:00:00 2,4 2,4 41 22 63 34 WSW
22.04.2018 23:00:00 2,6 2,6 39 21 52 28 SW
22.04.2018 22:00:00 2,5 2,5 41 22 54 29 SSW
22.04.2018 21:00:00 2,4 2,4 39 21 57 31 SSW
22.04.2018 20:00:00 2,2 2,2 41 22 61 33 SW
22.04.2018 19:00:00 2,4 1,9 41 22 68 37 SW
22.04.2018 18:00:00 2,8 1,4 39 21 68 37 W
22.04.2018 17:00:00 2,7 1,5 44 24 78 42 WSW
22.04.2018 16:00:00 2,8 2,5 46 25 67 36 WSW
22.04.2018 15:00:00 3,1 3,1 50 27 67 36 SW
22.04.2018 14:00:00 3,1 3,1 46 25 55 30 S
22.04.2018 13:00:00 2,9 2,9 46 25 61 33 S
22.04.2018 12:00:00 3,2 3,2 44 24 67 36 SSW
22.04.2018 11:00:00 3,5 2,9 46 25 55 30 SSW
22.04.2018 10:00:00 3,7 3,7 41 22 55 30 SSW
22.04.2018 09:00:00 4,3 4,3 41 22 52 28 SSW
22.04.2018 08:00:00 5,3 5,3 46 25 59 32 SSW
22.04.2018 07:00:00 5,9 5,9 44 24 59 32 SSW
22.04.2018 06:00:00 6,1 6,1 42 23 59 32 SSW
22.04.2018 05:00:00 6,5 6,5 48 26 57 31 SSW
22.04.2018 04:00:00 6,3 6,3 34 18 50 27 SSW
22.04.2018 03:00:00 6,6 6,3 35 19 50 27 S
22.04.2018 02:00:00 7,6 4,9 35 19 46 25 S
22.04.2018 01:00:00 7,2 3,7 24 13 - - S
22.04.2018 00:00:00 6,1 4,5 28 15 - - S
21.04.2018 23:00:00 5,2 4,8 21 11 - - SSW
21.04.2018 22:00:00 5,5 4,0 29 16 54 29 S
21.04.2018 21:00:00 5,7 3,8 42 23 55 30 SSE
21.04.2018 20:00:00 5,5 3,2 29 16 50 27 SE
21.04.2018 19:00:00 6,9 3,6 42 23 59 32 SE
21.04.2018 18:00:00 8,0 2,5 48 26 61 33 S
21.04.2018 17:00:00 8,1 2,4 46 25 61 33 SSW
21.04.2018 16:00:00 8,3 2,6 46 25 65 35 SSW
21.04.2018 15:00:00 6,5 2,3 41 22 63 34 SSW
21.04.2018 14:00:00 5,6 3,0 37 20 65 35 SSW
21.04.2018 13:00:00 5,1 2,1 46 25 59 32 SSW
21.04.2018 12:00:00 3,7 2,0 39 21 57 31 S
21.04.2018 11:00:00 3,1 1,6 - - 46 25 -
21.04.2018 10:00:00 2,8 0,8 24 13 - - SW
21.04.2018 09:00:00 2,1 0,2 18 10 - - SW
21.04.2018 08:00:00 1,4 0,9 24 13 - - W
21.04.2018 07:00:00 0,7 0,7 11 6 - - SW
21.04.2018 06:00:00 0,5 0,5 11 6 - - W
21.04.2018 05:00:00 0,5 0,5 28 15 - - W
21.04.2018 04:00:00 1,9 0,9 31 17 - - W
21.04.2018 03:00:00 1,8 1,1 13 7 - - SW
21.04.2018 02:00:00 2,1 1,3 29 16 - - WNW
21.04.2018 01:00:00 2,0 1,8 13 7 - - W
21.04.2018 00:00:00 2,0 2,0 8 4 - - WNW
20.04.2018 23:00:00 2,2 2,2 15 8 46 25 W
20.04.2018 22:00:00 2,2 2,2 37 20 50 27 WNW
20.04.2018 21:00:00 2,9 2,6 34 18 46 25 W
20.04.2018 20:00:00 3,2 2,6 41 22 55 30 W
20.04.2018 19:00:00 3,6 2,7 31 17 70 38 WSW
20.04.2018 18:00:00 3,8 2,7 48 26 70 38 W
20.04.2018 17:00:00 4,9 2,5 42 23 68 37 WSW
20.04.2018 16:00:00 5,3 1,6 42 23 70 38 WSW
20.04.2018 15:00:00 5,3 0,8 35 19 76 41 W
20.04.2018 14:00:00 5,6 1,7 48 26 81 44 WSW
20.04.2018 13:00:00 6,4 0,7 59 32 81 44 WSW
20.04.2018 12:00:00 5,8 1,2 61 33 83 45 WSW
20.04.2018 11:00:00 5,3 1,1 65 35 83 45 WSW
20.04.2018 10:00:00 4,5 1,1 46 25 68 37 WSW
20.04.2018 09:00:00 4,2 2,8 46 25 63 34 WSW
20.04.2018 08:00:00 4,0 4,0 34 18 54 29 WSW
20.04.2018 07:00:00 4,6 4,6 34 18 - - WSW
20.04.2018 06:00:00 4,7 4,7 22 12 - - WSW
20.04.2018 05:00:00 4,9 4,8 18 10 - - WSW
20.04.2018 04:00:00 5,3 5,3 21 11 - - SW
20.04.2018 03:00:00 5,6 5,6 18 10 - - WSW
20.04.2018 02:00:00 5,8 5,7 22 12 - - SW
20.04.2018 01:00:00 5,8 5,8 21 11 - - SSW
20.04.2018 00:00:00 6,0 6,0 24 13 - - WSW
19.04.2018 23:00:00 6,1 6,1 16 9 - - SW
19.04.2018 22:00:00 6,3 6,3 26 14 - - WSW
19.04.2018 21:00:00 6,7 6,4 28 15 - - SW
19.04.2018 20:00:00 7,4 4,9 31 17 - - SW
19.04.2018 19:00:00 8,0 4,8 35 19 52 28 SW
19.04.2018 18:00:00 8,4 5,2 41 22 57 31 SW
19.04.2018 17:00:00 8,2 6,6 41 22 65 35 SW
19.04.2018 16:00:00 7,5 7,5 52 28 70 38 SW
19.04.2018 15:00:00 7,4 7,4 54 29 65 35 SW
19.04.2018 14:00:00 7,5 7,5 52 28 65 35 SSW
19.04.2018 13:00:00 7,5 7,5 44 24 68 37 SSW
19.04.2018 12:00:00 7,4 7,4 55 30 68 37 SSW
19.04.2018 11:00:00 7,2 7,2 55 30 70 38 SSW
19.04.2018 10:00:00 7,2 7,2 55 30 68 37 SSW
19.04.2018 09:00:00 7,0 7,0 57 31 72 39 SSW

tt = Température de l'air
td = dewpoint
ff = Vitesse du vent
fx = gusts
dd = Direction du vent

stations d'obs. à proximité